TAF Flughafenprognosen

Nürnberg TAF, ausgegeben So 25.07. 07:00

TAF EDDN 250500Z 2506/2606 12004KT 9999 FEW040 PROB30 TEMPO 2508/2511 25008KT SHRA SCT030CB PROB30 TEMPO 2514/2520 21015G25KT 4000 TSRA BKN030CB PROB30 TEMPO 2601/2605 TSRA BKN020CB
GültigkeitVonBisWind in Beaufort
(Knoten)
Wolken
(Meter über Grund)
Sichtweite
(Meter)
Wettererscheinung
Grundvorhersage So 25.07. 08:00 Mo 26.07. 08:00 OSO 2 (4) Leicht bewölkt (1200) >= 10000  
Vorübergehend
(Wahrscheinlichkeit 30 %)
So 25.07. 10:00 So 25.07. 13:00 WSW 3 (8) Wolkig Cb (910)   Regen-Schauer
Vorübergehend
(Wahrscheinlichkeit 30 %)
So 25.07. 16:00 So 25.07. 22:00 SSW 4 (15) - 6 (25) Stark bewölkt Cb (910) 4000 Gewitter mit Regen
Vorübergehend
(Wahrscheinlichkeit 30 %)
Mo 26.07. 03:00 Mo 26.07. 07:00   Stark bewölkt Cb (610)   Gewitter mit Regen

 

Erfurt-Bindersleben TAF, ausgegeben So 25.07. 07:00

TAF EDDE 250500Z 2506/2606 22005KT 9999 FEW030 PROB30 TEMPO 2511/2518 24015G25KT 4500 TSRA BKN025CB
GültigkeitVonBisWind in Beaufort
(Knoten)
Wolken
(Meter über Grund)
Sichtweite
(Meter)
Wettererscheinung
Grundvorhersage So 25.07. 08:00 Mo 26.07. 08:00 SW 2 (5) Leicht bewölkt (910) >= 10000  
Vorübergehend
(Wahrscheinlichkeit 30 %)
So 25.07. 13:00 So 25.07. 20:00 WSW 4 (15) - 6 (25) Stark bewölkt Cb (760) 4500 Gewitter mit Regen

 

Frankfurt TAF, ausgegeben So 25.07. 07:00

TAF EDDF 250500Z 2506/2612 20006KT 9999 SCT020 TEMPO 2506/2507 BKN006 PROB30 TEMPO 2515/2519 22015G25KT TSRA BKN040CB BECMG 2522/2524 VRB03KT
GültigkeitVonBisWind in Beaufort
(Knoten)
Wolken
(Meter über Grund)
Sichtweite
(Meter)
Wettererscheinung
Grundvorhersage So 25.07. 08:00 Mo 26.07. 14:00 SSW 2 (6) Wolkig (610) >= 10000  
Vorübergehend So 25.07. 08:00 So 25.07. 09:00   Stark bewölkt (180)    
Vorübergehend
(Wahrscheinlichkeit 30 %)
So 25.07. 17:00 So 25.07. 21:00 SW 4 (15) - 6 (25) Stark bewölkt Cb (1200)   Gewitter mit Regen
Übergang zu Mo 26.07. 00:00 Mo 26.07. 02:00 Uml 2 (3)      

 

Stuttgart TAF, ausgegeben So 25.07. 07:00

TAF EDDS 250500Z 2506/2606 VRB03KT 9999 SCT025 PROB30 TEMPO 2506/2509 24005KT TEMPO 2509/2516 21005KT SHRA BKN040CB PROB30 TEMPO 2512/2516 20015G25KT TSRA BKN030CB PROB30 TEMPO 2600/2605 2000 BCFG
GültigkeitVonBisWind in Beaufort
(Knoten)
Wolken
(Meter über Grund)
Sichtweite
(Meter)
Wettererscheinung
Grundvorhersage So 25.07. 08:00 Mo 26.07. 08:00 Uml 2 (3) Wolkig (760) >= 10000  
Vorübergehend
(Wahrscheinlichkeit 30 %)
So 25.07. 08:00 So 25.07. 11:00 WSW 2 (5)      
Vorübergehend So 25.07. 11:00 So 25.07. 18:00 SSW 2 (5) Stark bewölkt Cb (1200)   Regen-Schauer
Vorübergehend
(Wahrscheinlichkeit 30 %)
So 25.07. 14:00 So 25.07. 18:00 SSW 4 (15) - 6 (25) Stark bewölkt Cb (910)   Gewitter mit Regen
Vorübergehend
(Wahrscheinlichkeit 30 %)
Mo 26.07. 02:00 Mo 26.07. 07:00     2000 Nebel-Bänke

 

München TAF, ausgegeben So 25.07. 07:00

TAF EDDM 250500Z 2506/2612 24007KT 9999 SHRA SCT030CB BKN045 BECMG 2506/2507 NSW BKN045 BECMG 2507/2509 06005KT BECMG 2514/2516 26005KT PROB40 TEMPO 2515/2518 25020G35KT 3000 TSRA BKN030CB BECMG 2520/2523 VRB03KT TEMPO 2600/2606 SHRA BKN012 SCT030CB
GültigkeitVonBisWind in Beaufort
(Knoten)
Wolken
(Meter über Grund)
Sichtweite
(Meter)
Wettererscheinung
Grundvorhersage So 25.07. 08:00 Mo 26.07. 14:00 WSW 3 (7) Stark bewölkt (1400)
Wolkig Cb (910)
>= 10000 Regen-Schauer
Übergang zu So 25.07. 08:00 So 25.07. 09:00   Stark bewölkt (1400)    
Übergang zu So 25.07. 09:00 So 25.07. 11:00 ONO 2 (5)      
Übergang zu So 25.07. 16:00 So 25.07. 18:00 W 2 (5)      
Vorübergehend
(Wahrscheinlichkeit 40 %)
So 25.07. 17:00 So 25.07. 20:00 WSW 5 (20) - 8 (35) Stark bewölkt Cb (910) 3000 Gewitter mit Regen
Übergang zu So 25.07. 22:00 Mo 26.07. 01:00 Uml 2 (3)      
Vorübergehend Mo 26.07. 02:00 Mo 26.07. 08:00   Wolkig Cb (910)
Stark bewölkt (370)
  Regen-Schauer